createdAt,value
2019-05-18T00:01:40.409Z,14.50
2019-05-18T00:04:06.540Z,14.50
2019-05-18T00:06:35.439Z,14.50
2019-05-18T00:09:07.338Z,14.50
2019-05-18T00:11:33.799Z,14.60
2019-05-18T00:14:01.254Z,14.50
2019-05-18T00:16:27.578Z,14.40
2019-05-18T00:18:56.823Z,14.30
2019-05-18T00:21:25.973Z,14.30
2019-05-18T00:23:52.101Z,14.20
2019-05-18T00:26:34.659Z,14.20
2019-05-18T00:29:00.761Z,14.10
2019-05-18T00:31:27.832Z,14.00
2019-05-18T00:33:56.377Z,14.00
2019-05-18T00:36:29.398Z,14.10
2019-05-18T00:38:57.646Z,14.10
2019-05-18T00:41:30.824Z,14.00
2019-05-18T00:44:05.802Z,13.90
2019-05-18T00:46:33.888Z,14.00
2019-05-18T00:49:09.988Z,14.00
2019-05-18T00:51:38.325Z,14.00
2019-05-18T00:54:06.093Z,14.00
2019-05-18T00:56:36.649Z,13.90
2019-05-18T00:59:04.744Z,13.90
2019-05-18T01:01:33.894Z,13.80
2019-05-18T01:04:02.031Z,13.80
2019-05-18T01:06:30.931Z,13.80
2019-05-18T01:08:57.982Z,13.70
2019-05-18T01:11:30.433Z,13.70
2019-05-18T01:13:58.937Z,13.80
2019-05-18T01:16:25.979Z,13.80
2019-05-18T01:18:56.182Z,13.90
2019-05-18T01:21:22.196Z,13.90
2019-05-18T01:23:50.210Z,13.90
2019-05-18T01:26:17.554Z,13.80
2019-05-18T01:28:43.710Z,13.70
2019-05-18T01:31:09.717Z,13.60
2019-05-18T01:33:37.790Z,13.40
2019-05-18T01:36:08.250Z,13.30
2019-05-18T01:38:35.705Z,13.30
2019-05-18T01:41:04.698Z,13.40
2019-05-18T01:43:32.724Z,13.40
2019-05-18T01:45:58.729Z,13.40
2019-05-18T01:48:30.794Z,13.40
2019-05-18T01:50:57.024Z,13.30
2019-05-18T01:53:23.059Z,13.30
2019-05-18T01:55:49.148Z,13.30
2019-05-18T01:58:15.195Z,13.40
2019-05-18T02:00:51.151Z,13.30
2019-05-18T02:03:18.516Z,13.30
2019-05-18T02:05:47.524Z,13.30
2019-05-18T02:08:13.539Z,13.50
2019-05-18T02:10:43.490Z,13.40
2019-05-18T02:13:16.279Z,13.30
2019-05-18T02:15:50.131Z,13.20
2019-05-18T02:18:28.272Z,13.30
2019-05-18T02:20:47.437Z,13.30
2019-05-18T02:23:14.563Z,13.30
2019-05-18T02:25:44.213Z,13.20
2019-05-18T02:28:11.240Z,13.10
2019-05-18T02:30:45.054Z,13.00
2019-05-18T02:33:11.076Z,13.00
2019-05-18T02:35:41.015Z,13.00
2019-05-18T02:38:14.836Z,13.00
2019-05-18T02:40:48.991Z,12.90
2019-05-18T02:43:15.820Z,13.00
2019-05-18T02:45:49.023Z,13.00
2019-05-18T02:48:15.166Z,13.00
2019-05-18T02:50:43.176Z,13.00
2019-05-18T02:53:11.242Z,13.00
2019-05-18T02:55:41.479Z,12.90
2019-05-18T02:58:07.558Z,12.90
2019-05-18T03:00:34.689Z,12.80
2019-05-18T03:03:02.835Z,12.80
2019-05-18T03:05:28.961Z,12.90
2019-05-18T03:07:56.133Z,12.80
2019-05-18T03:10:23.129Z,12.80
2019-05-18T03:12:49.301Z,12.70
2019-05-18T03:15:20.626Z,12.70
2019-05-18T03:17:48.035Z,12.70
2019-05-18T03:20:16.329Z,12.80
2019-05-18T03:22:43.374Z,12.80
2019-05-18T03:25:09.590Z,12.90
2019-05-18T03:27:37.143Z,13.00
2019-05-18T03:30:16.411Z,13.00
2019-05-18T03:32:50.899Z,13.00
2019-05-18T03:35:19.341Z,13.00
2019-05-18T03:37:46.350Z,12.90
2019-05-18T03:40:14.222Z,12.90
2019-05-18T03:42:46.899Z,12.80
2019-05-18T03:45:14.919Z,12.90
2019-05-18T03:47:41.366Z,13.00
2019-05-18T03:50:08.516Z,13.00
2019-05-18T03:52:34.634Z,13.00
2019-05-18T03:55:01.866Z,12.90
2019-05-18T03:57:29.931Z,12.80
2019-05-18T04:00:00.304Z,12.80
2019-05-18T04:02:26.357Z,12.70
2019-05-18T04:05:07.540Z,12.70
2019-05-18T04:07:37.109Z,12.60
2019-05-18T04:10:09.181Z,12.50
2019-05-18T04:12:44.189Z,12.40
2019-05-18T04:15:17.295Z,12.30
2019-05-18T04:17:51.164Z,12.40
2019-05-18T04:20:18.407Z,12.50
2019-05-18T04:23:03.484Z,12.40
2019-05-18T04:25:29.596Z,12.40
2019-05-18T04:28:03.552Z,12.40
2019-05-18T04:30:29.597Z,12.50
2019-05-18T04:32:55.704Z,12.50
2019-05-18T04:35:23.851Z,12.60
2019-05-18T04:37:50.047Z,12.70
2019-05-18T04:40:17.384Z,12.80
2019-05-18T04:42:43.427Z,12.90
2019-05-18T04:45:10.123Z,12.90
2019-05-18T04:47:36.476Z,13.00
2019-05-18T04:50:07.962Z,13.00
2019-05-18T04:52:34.070Z,13.00
2019-05-18T04:55:03.672Z,13.10
2019-05-18T04:57:36.723Z,13.10
2019-05-18T05:00:07.058Z,13.10
2019-05-18T05:02:35.452Z,13.00
2019-05-18T05:05:01.977Z,13.00
2019-05-18T05:07:32.289Z,12.90
2019-05-18T05:10:07.055Z,12.90
2019-05-18T05:12:33.167Z,12.80
2019-05-18T05:15:00.308Z,12.80
2019-05-18T05:17:31.076Z,12.90
2019-05-18T05:19:57.440Z,12.90
2019-05-18T05:22:26.677Z,12.90
2019-05-18T05:24:59.849Z,12.90
2019-05-18T05:27:33.584Z,12.90
2019-05-18T05:30:12.741Z,13.00
2019-05-18T05:32:47.619Z,13.10
2019-05-18T05:35:26.613Z,13.20
2019-05-18T05:37:56.954Z,13.30
2019-05-18T05:40:26.058Z,13.30
2019-05-18T05:42:56.469Z,13.40
2019-05-18T05:45:28.530Z,13.50
2019-05-18T05:47:55.597Z,13.50
2019-05-18T05:50:34.789Z,13.60
2019-05-18T05:52:56.693Z,13.60
2019-05-18T05:55:24.872Z,13.60
2019-05-18T05:57:51.271Z,13.70
2019-05-18T06:00:20.438Z,13.70
2019-05-18T06:02:46.554Z,13.80
2019-05-18T06:05:14.187Z,13.80
2019-05-18T06:07:40.213Z,13.90
2019-05-18T06:10:18.319Z,14.00
2019-05-18T06:12:47.477Z,14.10
2019-05-18T06:15:15.338Z,14.10
2019-05-18T06:17:43.112Z,14.10
2019-05-18T06:20:12.341Z,14.00
2019-05-18T06:22:44.412Z,14.00
2019-05-18T06:25:19.357Z,14.00
2019-05-18T06:27:47.625Z,14.10
2019-05-18T06:30:16.855Z,14.00
2019-05-18T06:32:46.528Z,14.00
2019-05-18T06:35:12.870Z,14.10
2019-05-18T06:37:38.986Z,14.10
2019-05-18T06:40:23.711Z,14.20
2019-05-18T06:42:53.631Z,14.40
2019-05-18T06:45:32.182Z,14.40
2019-05-18T06:48:00.397Z,14.60
2019-05-18T06:50:29.426Z,14.60
2019-05-18T06:53:05.939Z,14.60
2019-05-18T06:55:34.433Z,14.60
2019-05-18T06:58:09.206Z,14.60
2019-05-18T07:00:41.980Z,14.60
2019-05-18T07:03:10.492Z,14.60
2019-05-18T07:05:38.676Z,14.70
2019-05-18T07:08:07.773Z,14.70
2019-05-18T07:10:36.713Z,14.90
2019-05-18T07:13:03.849Z,15.30
2019-05-18T07:15:33.469Z,15.30
2019-05-18T07:18:03.578Z,15.40
2019-05-18T07:20:36.458Z,15.70
2019-05-18T07:23:03.515Z,16.10
2019-05-18T07:25:31.505Z,16.30
2019-05-18T07:28:00.661Z,16.40
2019-05-18T07:30:30.368Z,16.50
2019-05-18T07:32:57.231Z,16.50
2019-05-18T07:35:23.291Z,16.40
2019-05-18T07:37:50.365Z,16.30
2019-05-18T07:40:18.838Z,16.50
2019-05-18T07:42:46.992Z,16.50
2019-05-18T07:45:14.691Z,16.70
2019-05-18T07:47:52.086Z,16.80
2019-05-18T07:50:18.509Z,16.90
2019-05-18T07:52:47.508Z,16.90
2019-05-18T07:55:16.959Z,16.90
2019-05-18T07:57:49.391Z,16.90
2019-05-18T08:00:23.319Z,17.10
2019-05-18T08:02:56.356Z,17.30
2019-05-18T08:05:22.892Z,17.40
2019-05-18T08:07:49.287Z,17.50
2019-05-18T08:10:20.176Z,17.40
2019-05-18T08:12:47.815Z,17.50
2019-05-18T08:15:17.144Z,17.50
2019-05-18T08:17:43.138Z,17.80
2019-05-18T08:20:09.429Z,17.90
2019-05-18T08:22:35.494Z,18.10
2019-05-18T08:25:01.469Z,18.30
2019-05-18T08:27:29.393Z,18.50
2019-05-18T08:29:55.456Z,18.70
2019-05-18T08:32:22.624Z,18.90
2019-05-18T08:34:48.675Z,19.00
2019-05-18T08:37:20.476Z,19.30
2019-05-18T08:39:47.552Z,19.40
2019-05-18T08:42:13.670Z,19.20
2019-05-18T08:44:44.103Z,19.20
2019-05-18T08:47:16.932Z,19.20
2019-05-18T08:49:48.867Z,19.40
2019-05-18T08:52:14.881Z,19.50
2019-05-18T08:54:41.008Z,19.60
2019-05-18T08:57:07.413Z,19.80
2019-05-18T08:59:34.873Z,19.90
2019-05-18T09:02:02.144Z,19.90
2019-05-18T09:04:28.835Z,20.00
2019-05-18T09:06:54.856Z,19.70
2019-05-18T09:09:24.990Z,19.40
2019-05-18T09:11:51.004Z,19.40
2019-05-18T09:14:17.181Z,19.50
2019-05-18T09:16:43.178Z,19.60
2019-05-18T09:19:15.007Z,19.50
2019-05-18T09:21:42.042Z,19.50
2019-05-18T09:24:09.106Z,19.60
2019-05-18T09:26:35.367Z,19.60
2019-05-18T09:29:04.237Z,19.60
2019-05-18T09:31:30.300Z,19.90
2019-05-18T09:33:57.453Z,20.00
2019-05-18T09:36:24.588Z,20.10
2019-05-18T09:38:50.771Z,20.30
2019-05-18T09:41:18.258Z,20.20
2019-05-18T09:43:45.334Z,20.40
2019-05-18T09:46:15.295Z,20.70
2019-05-18T09:48:41.297Z,20.80
2019-05-18T09:51:07.321Z,20.80
2019-05-18T09:53:33.448Z,20.90
2019-05-18T09:56:00.544Z,20.90
2019-05-18T09:58:26.566Z,20.90
2019-05-18T10:00:53.575Z,20.90
2019-05-18T10:03:20.830Z,21.00
2019-05-18T10:05:46.845Z,21.10
2019-05-18T10:08:14.108Z,21.20
2019-05-18T10:10:40.132Z,21.30
2019-05-18T10:13:06.165Z,21.40
2019-05-18T10:15:34.127Z,21.60
2019-05-18T10:18:00.187Z,21.50
2019-05-18T10:20:26.384Z,21.60
2019-05-18T10:23:04.195Z,21.60
2019-05-18T10:25:23.916Z,21.70
2019-05-18T10:27:50.005Z,21.60
2019-05-18T10:30:16.962Z,21.60
2019-05-18T10:32:42.968Z,21.40
2019-05-18T10:35:12.209Z,21.40
2019-05-18T10:37:38.256Z,21.60
2019-05-18T10:40:07.778Z,21.80
2019-05-18T10:42:39.839Z,21.90
2019-05-18T10:45:11.055Z,22.10
2019-05-18T10:47:38.123Z,22.30
2019-05-18T10:50:07.055Z,22.40
2019-05-18T10:52:35.285Z,22.50
2019-05-18T10:55:05.539Z,22.60
2019-05-18T10:57:31.655Z,22.80
2019-05-18T10:59:57.653Z,22.80
2019-05-18T11:02:24.836Z,22.50
2019-05-18T11:04:51.809Z,22.40
2019-05-18T11:07:20.744Z,22.00
2019-05-18T11:09:49.908Z,22.10
2019-05-18T11:12:17.317Z,22.30
2019-05-18T11:14:45.337Z,22.60
2019-05-18T11:17:13.625Z,22.70
2019-05-18T11:19:41.648Z,22.80
2019-05-18T11:22:09.598Z,22.50
2019-05-18T11:24:37.795Z,22.20
2019-05-18T11:27:03.852Z,22.10
2019-05-18T11:29:31.278Z,22.40
2019-05-18T11:31:59.322Z,22.60
2019-05-18T11:34:27.468Z,23.10
2019-05-18T11:36:53.705Z,23.40
2019-05-18T11:39:19.726Z,23.50
2019-05-18T11:41:45.952Z,23.70
2019-05-18T11:44:12.036Z,23.70
2019-05-18T11:46:38.073Z,23.80
2019-05-18T11:49:04.205Z,23.70
2019-05-18T11:51:36.697Z,23.80
2019-05-18T11:54:02.898Z,23.90
2019-05-18T11:56:33.303Z,23.80
2019-05-18T11:59:00.424Z,23.90
2019-05-18T12:01:29.628Z,23.50
2019-05-18T12:03:57.722Z,23.30
2019-05-18T12:06:23.790Z,23.20
2019-05-18T12:08:49.900Z,23.50
2019-05-18T12:11:17.331Z,23.80
2019-05-18T12:13:43.318Z,24.00
2019-05-18T12:16:09.635Z,24.30
2019-05-18T12:18:37.689Z,24.60
2019-05-18T12:21:04.869Z,24.60
2019-05-18T12:23:32.977Z,24.70
2019-05-18T12:26:23.942Z,24.50
2019-05-18T12:29:03.322Z,24.10
2019-05-18T12:31:43.125Z,24.20
2019-05-18T12:37:11.997Z,24.10
2019-05-18T12:39:52.086Z,24.40
2019-05-18T12:42:31.604Z,24.80
2019-05-18T12:45:14.691Z,25.40
2019-05-18T12:47:53.662Z,25.70
2019-05-18T12:50:33.874Z,25.60
2019-05-18T12:53:13.441Z,25.70
2019-05-18T12:55:53.070Z,25.70
2019-05-18T12:58:32.021Z,25.80
2019-05-18T13:01:13.132Z,25.70
2019-05-18T13:03:52.200Z,25.40
2019-05-18T13:06:31.296Z,25.60
2019-05-18T13:09:10.430Z,25.80
2019-05-18T13:11:49.688Z,25.90
2019-05-18T13:14:30.170Z,26.00
2019-05-18T13:17:11.663Z,26.10
2019-05-18T13:19:51.154Z,26.30
2019-05-18T13:22:31.453Z,26.60
2019-05-18T13:28:02.054Z,25.80
2019-05-18T13:30:41.995Z,25.50
2019-05-18T13:33:23.182Z,25.60
2019-05-18T13:38:49.151Z,25.90
2019-05-18T13:44:12.928Z,25.70
2019-05-18T13:46:52.443Z,25.50
2019-05-18T13:49:39.697Z,25.10
2019-05-18T13:52:19.662Z,24.90
2019-05-18T13:55:04.837Z,24.40
2019-05-18T14:00:33.592Z,24.80
2019-05-18T14:03:16.810Z,25.50
2019-05-18T14:05:56.769Z,25.70
2019-05-18T14:08:35.895Z,25.50
2019-05-18T14:11:16.811Z,25.50
2019-05-18T14:13:56.016Z,25.40
2019-05-18T14:16:36.710Z,25.30
2019-05-18T14:19:16.082Z,25.10
2019-05-18T14:21:55.292Z,25.10
2019-05-18T14:24:35.170Z,25.30
2019-05-18T14:27:14.849Z,25.50
2019-05-18T14:29:53.853Z,25.90
2019-05-18T14:35:15.720Z,25.90
2019-05-18T14:40:38.790Z,25.30
2019-05-18T14:43:19.837Z,25.30
2019-05-18T14:45:58.972Z,25.20
2019-05-18T14:48:37.957Z,25.10
2019-05-18T14:51:17.685Z,25.10
2019-05-18T14:53:57.581Z,25.10
2019-05-18T14:56:37.476Z,25.10
2019-05-18T14:59:17.326Z,24.70
2019-05-18T15:01:56.267Z,24.50
2019-05-18T15:04:38.594Z,24.80
2019-05-18T15:07:18.213Z,25.00
2019-05-18T15:09:57.978Z,25.20
2019-05-18T15:12:37.050Z,24.80
2019-05-18T15:15:18.380Z,24.50
2019-05-18T15:17:58.263Z,23.90
2019-05-18T15:26:29.889Z,23.40
2019-05-18T15:31:55.543Z,23.40
2019-05-18T15:37:26.079Z,23.10
2019-05-18T15:40:07.788Z,22.80
2019-05-18T15:51:13.672Z,22.20
2019-05-18T15:53:53.645Z,22.20
2019-05-18T15:59:18.639Z,22.20
2019-05-18T16:02:00.212Z,22.20
2019-05-18T16:04:41.221Z,22.30
2019-05-18T16:07:22.075Z,22.30
2019-05-18T16:10:08.822Z,22.40
2019-05-18T16:12:55.480Z,22.40
2019-05-18T16:15:38.142Z,22.40
2019-05-18T16:18:19.737Z,22.40
2019-05-18T16:21:10.619Z,22.40
2019-05-18T16:23:49.967Z,22.50
2019-05-18T16:26:31.848Z,22.50
2019-05-18T16:29:18.997Z,22.60
2019-05-18T16:32:00.659Z,22.60
2019-05-18T16:34:42.968Z,22.60
2019-05-18T16:40:10.160Z,22.60
2019-05-18T16:51:23.219Z,22.90
2019-05-18T16:59:23.372Z,22.90
2019-05-18T17:02:10.669Z,22.70
2019-05-18T17:04:54.187Z,22.60
2019-05-18T17:07:35.965Z,22.30
2019-05-18T17:10:16.266Z,22.20
2019-05-18T17:12:56.054Z,22.00
2019-05-18T17:18:20.024Z,22.00
2019-05-18T17:23:44.833Z,22.10
2019-05-18T17:26:23.800Z,22.10
2019-05-18T17:29:02.902Z,22.10
2019-05-18T17:31:42.013Z,22.20
2019-05-18T17:34:24.310Z,22.30
2019-05-18T17:37:03.685Z,22.30
2019-05-18T17:39:42.746Z,22.30
2019-05-18T17:42:22.866Z,22.40
2019-05-18T17:45:03.864Z,22.30
2019-05-18T17:50:26.613Z,22.30
2019-05-18T17:55:55.020Z,22.20
2019-05-18T17:58:34.800Z,22.20
2019-05-18T18:01:15.055Z,22.20
2019-05-18T18:03:41.580Z,22.20
2019-05-18T18:06:07.612Z,22.20
2019-05-18T18:09:13.735Z,22.20
2019-05-18T18:11:53.782Z,22.10
2019-05-18T18:14:33.816Z,22.10
2019-05-18T18:17:17.583Z,22.00
2019-05-18T18:19:56.494Z,21.90
2019-05-18T18:22:37.253Z,21.90
2019-05-18T18:25:17.058Z,21.90
2019-05-18T18:27:56.215Z,21.90
2019-05-18T18:30:35.586Z,21.90
2019-05-18T18:33:14.616Z,21.80
2019-05-18T18:35:53.658Z,21.80
2019-05-18T18:41:15.037Z,21.20
2019-05-18T18:43:54.702Z,20.70
2019-05-18T18:46:33.864Z,20.40
2019-05-18T18:49:16.402Z,20.10
2019-05-18T18:51:55.968Z,19.80
2019-05-18T18:54:34.963Z,19.70
2019-05-18T18:57:18.050Z,19.50
2019-05-18T18:59:57.333Z,19.40
2019-05-18T19:02:38.255Z,19.30
2019-05-18T19:05:18.208Z,19.10
2019-05-18T19:07:58.117Z,19.00
2019-05-18T19:10:39.320Z,18.80
2019-05-18T19:13:06.294Z,18.70
2019-05-18T19:15:52.916Z,18.60
2019-05-18T19:18:39.260Z,18.50
2019-05-18T19:21:20.651Z,18.40
2019-05-18T19:23:59.691Z,18.20
2019-05-18T19:26:39.949Z,18.10
2019-05-18T19:29:19.674Z,18.10
2019-05-18T19:34:48.712Z,18.10
2019-05-18T19:37:32.682Z,18.00
2019-05-18T19:42:56.790Z,17.90
2019-05-18T19:45:36.121Z,17.70
2019-05-18T19:48:15.813Z,17.80
2019-05-18T19:53:37.996Z,17.30
2019-05-18T19:56:18.633Z,17.00
2019-05-18T19:59:02.363Z,17.00
2019-05-18T20:01:42.040Z,16.80
2019-05-18T20:04:22.141Z,16.70
2019-05-18T20:07:02.715Z,16.60
2019-05-18T20:09:42.711Z,16.20
2019-05-18T20:12:08.750Z,15.70
2019-05-18T20:14:54.706Z,15.60
2019-05-18T20:17:33.981Z,15.50
2019-05-18T20:20:13.710Z,15.50
2019-05-18T20:22:53.589Z,15.60
2019-05-18T20:25:32.534Z,15.80
2019-05-18T20:28:23.304Z,15.80
2019-05-18T20:30:55.825Z,16.00
2019-05-18T20:33:35.488Z,16.10
2019-05-18T20:36:16.782Z,16.20
2019-05-18T20:38:57.814Z,16.20
2019-05-18T20:41:37.566Z,16.30
2019-05-18T20:44:17.596Z,16.20
2019-05-18T20:49:39.850Z,15.40
2019-05-18T20:52:18.959Z,15.30
2019-05-18T20:54:58.199Z,15.30
2019-05-18T20:57:37.353Z,15.20
2019-05-18T21:00:17.463Z,15.30
2019-05-18T21:02:57.119Z,15.20
2019-05-18T21:08:20.526Z,15.50
2019-05-18T21:11:01.898Z,15.50
2019-05-18T21:13:42.085Z,15.50
2019-05-18T21:16:21.481Z,15.40
2019-05-18T21:19:02.945Z,15.60
2019-05-18T21:21:44.678Z,15.70
2019-05-18T21:24:24.484Z,15.60
2019-05-18T21:27:04.857Z,15.60
2019-05-18T21:29:45.930Z,15.50
2019-05-18T21:32:25.767Z,15.50
2019-05-18T21:35:05.345Z,15.50
2019-05-18T21:37:45.513Z,15.50
2019-05-18T21:40:28.435Z,15.50
2019-05-18T21:43:08.513Z,15.60
2019-05-18T21:45:47.744Z,15.80
2019-05-18T21:48:27.572Z,16.00
2019-05-18T21:51:06.818Z,16.00
2019-05-18T21:53:48.483Z,16.10
2019-05-18T21:56:28.372Z,16.10
2019-05-18T21:59:11.635Z,16.10
2019-05-18T22:01:51.100Z,16.00
2019-05-18T22:04:30.944Z,16.00
2019-05-18T22:07:12.476Z,16.00
2019-05-18T22:09:53.987Z,16.00
2019-05-18T22:12:35.657Z,16.00
2019-05-18T22:15:17.870Z,16.00
2019-05-18T22:18:03.588Z,16.00
2019-05-18T22:20:44.303Z,16.00
2019-05-18T22:23:24.622Z,16.00
2019-05-18T22:26:04.618Z,16.10
2019-05-18T22:31:26.765Z,16.00
2019-05-18T22:34:05.682Z,16.00
2019-05-18T22:36:44.784Z,16.00
2019-05-18T22:39:26.669Z,16.00
2019-05-18T22:42:05.634Z,16.00
2019-05-18T22:44:45.507Z,16.00
2019-05-18T22:50:10.737Z,16.10
2019-05-18T22:52:50.777Z,16.10
2019-05-18T22:55:30.525Z,16.00
2019-05-18T22:58:09.548Z,16.00
2019-05-18T23:00:48.600Z,16.00
2019-05-18T23:03:28.609Z,15.90
2019-05-18T23:06:07.621Z,15.70
2019-05-18T23:08:46.703Z,15.80
2019-05-18T23:11:25.554Z,15.70
2019-05-18T23:14:04.675Z,15.60
2019-05-18T23:16:43.916Z,15.50
2019-05-18T23:19:23.698Z,15.40
2019-05-18T23:22:02.683Z,15.30
2019-05-18T23:24:41.709Z,15.30
2019-05-18T23:27:20.686Z,15.20
2019-05-18T23:29:59.767Z,15.20
2019-05-18T23:32:40.529Z,15.20
2019-05-18T23:35:19.942Z,15.10
2019-05-18T23:37:59.249Z,15.10
2019-05-18T23:40:39.029Z,15.10
2019-05-18T23:43:20.693Z,15.20
2019-05-18T23:46:03.125Z,15.00
2019-05-18T23:48:42.741Z,15.00
2019-05-18T23:51:21.837Z,15.00
2019-05-18T23:54:00.847Z,15.00
2019-05-18T23:56:39.814Z,15.10
2019-05-18T23:59:20.629Z,15.20
